createdAt,value
2022-09-22T00:01:22.264Z,2.90
2022-09-22T00:04:27.623Z,3.50
2022-09-22T00:07:32.938Z,4.03
2022-09-22T00:10:37.827Z,4.13
2022-09-22T00:13:44.303Z,4.63
2022-09-22T00:16:52.565Z,3.30
2022-09-22T00:19:57.634Z,2.43
2022-09-22T00:23:02.854Z,2.60
2022-09-22T00:26:09.012Z,2.33
2022-09-22T00:29:17.678Z,2.13
2022-09-22T00:32:23.870Z,4.70
2022-09-22T00:35:28.844Z,5.27
2022-09-22T00:38:34.242Z,2.57
2022-09-22T00:41:42.157Z,2.17
2022-09-22T00:44:48.072Z,2.40
2022-09-22T00:47:54.667Z,2.43
2022-09-22T00:51:02.797Z,1.80
2022-09-22T00:54:14.986Z,2.07
2022-09-22T00:57:24.202Z,4.00
2022-09-22T01:00:32.049Z,3.67
2022-09-22T01:03:41.264Z,1.87
2022-09-22T01:06:48.572Z,3.00
2022-09-22T01:09:56.459Z,1.77
2022-09-22T01:13:18.309Z,2.50
2022-09-22T01:16:37.321Z,2.50
2022-09-22T01:20:21.334Z,2.83
2022-09-22T01:24:12.564Z,1.93
2022-09-22T01:27:51.224Z,1.37
2022-09-22T01:31:05.444Z,2.33
2022-09-22T01:34:19.881Z,3.33
2022-09-22T01:37:31.994Z,2.70
2022-09-22T01:40:45.963Z,1.67
2022-09-22T01:43:55.445Z,3.23
2022-09-22T01:47:07.415Z,2.50
2022-09-22T01:50:18.272Z,2.53
2022-09-22T01:53:29.149Z,2.20
2022-09-22T01:56:38.481Z,4.10
2022-09-22T01:59:49.847Z,2.47
2022-09-22T02:03:03.900Z,3.33
2022-09-22T02:06:15.157Z,2.10
2022-09-22T02:09:24.451Z,2.43
2022-09-22T02:12:30.967Z,2.83
2022-09-22T02:15:53.719Z,2.90
2022-09-22T02:19:13.301Z,2.23
2022-09-22T02:22:20.515Z,2.63
2022-09-22T02:25:27.184Z,2.17
2022-09-22T02:28:34.681Z,3.03
2022-09-22T02:31:44.012Z,1.67
2022-09-22T02:34:53.565Z,3.40
2022-09-22T02:38:09.235Z,3.20
2022-09-22T02:41:26.175Z,2.53
2022-09-22T02:44:39.160Z,3.37
2022-09-22T02:47:50.798Z,3.27
2022-09-22T02:50:59.919Z,3.40
2022-09-22T02:54:05.898Z,1.73
2022-09-22T02:57:15.114Z,2.87
2022-09-22T03:00:26.424Z,2.77
2022-09-22T03:03:36.148Z,1.63
2022-09-22T03:06:44.958Z,2.83
2022-09-22T03:09:52.221Z,2.27
2022-09-22T03:13:17.837Z,2.80
2022-09-22T03:16:26.108Z,3.87
2022-09-22T03:19:32.073Z,2.60
2022-09-22T03:22:41.551Z,3.33
2022-09-22T03:25:47.853Z,3.00
2022-09-22T03:28:54.246Z,3.10
2022-09-22T03:32:00.680Z,4.03
2022-09-22T03:35:08.213Z,2.30
2022-09-22T03:38:17.423Z,2.53
2022-09-22T03:41:24.941Z,2.63
2022-09-22T03:44:33.859Z,1.83
2022-09-22T03:47:39.942Z,2.17
2022-09-22T03:50:47.713Z,2.30
2022-09-22T03:54:02.947Z,3.03
2022-09-22T03:57:12.330Z,2.87
2022-09-22T04:00:22.497Z,2.80
2022-09-22T04:03:29.603Z,4.07
2022-09-22T04:06:37.983Z,3.67
2022-09-22T04:10:02.948Z,2.63
2022-09-22T04:13:18.179Z,3.43
2022-09-22T04:16:26.576Z,4.73
2022-09-22T04:19:39.087Z,7.63
2022-09-22T04:22:58.945Z,2.97
2022-09-22T04:26:12.353Z,3.37
2022-09-22T04:29:37.080Z,3.17
2022-09-22T04:32:57.726Z,2.37
2022-09-22T04:36:10.985Z,2.57
2022-09-22T04:39:35.906Z,3.13
2022-09-22T04:42:48.782Z,2.30
2022-09-22T04:46:02.505Z,4.03
2022-09-22T04:49:22.550Z,2.10
2022-09-22T04:56:45.467Z,2.27
2022-09-22T05:00:00.773Z,2.27
2022-09-22T05:03:18.637Z,2.03
2022-09-22T05:06:45.620Z,2.33
2022-09-22T05:10:05.918Z,2.77
2022-09-22T05:13:35.836Z,3.47
2022-09-22T05:16:50.468Z,2.47
2022-09-22T05:20:11.221Z,4.20
2022-09-22T05:23:24.990Z,2.77
2022-09-22T05:26:56.330Z,3.87
2022-09-22T05:30:11.210Z,3.10
2022-09-22T05:33:40.355Z,1.60
2022-09-22T05:36:55.604Z,2.17
2022-09-22T05:40:08.686Z,2.00
2022-09-22T05:43:21.271Z,4.07
2022-09-22T05:46:29.650Z,2.27
2022-09-22T05:49:45.513Z,3.57
2022-09-22T05:52:55.688Z,2.63
2022-09-22T05:56:17.578Z,2.87
2022-09-22T05:59:29.553Z,3.13
2022-09-22T06:02:36.595Z,3.03
2022-09-22T06:05:52.012Z,4.00
2022-09-22T06:09:00.368Z,4.37
2022-09-22T06:12:09.465Z,3.17
2022-09-22T06:15:15.664Z,3.27
2022-09-22T06:18:24.776Z,3.30
2022-09-22T06:21:32.700Z,3.37
2022-09-22T06:24:41.377Z,6.50
2022-09-22T06:27:48.101Z,4.30
2022-09-22T06:30:54.300Z,3.70
2022-09-22T06:34:03.201Z,5.27
2022-09-22T06:37:14.706Z,6.07
2022-09-22T06:40:23.259Z,5.20
2022-09-22T06:43:31.905Z,4.37
2022-09-22T06:46:40.144Z,5.30
2022-09-22T06:49:47.742Z,5.90
2022-09-22T06:53:00.584Z,4.97
2022-09-22T06:56:08.279Z,6.80
2022-09-22T06:59:15.204Z,4.00
2022-09-22T07:02:23.167Z,2.30
2022-09-22T07:05:35.773Z,2.47
2022-09-22T07:08:59.516Z,2.45
2022-09-22T07:12:08.456Z,2.50
2022-09-22T07:15:17.713Z,2.28
2022-09-22T07:18:27.742Z,2.53
2022-09-22T07:21:41.413Z,2.45
2022-09-22T07:25:06.516Z,2.78
2022-09-22T07:28:23.806Z,3.22
2022-09-22T07:31:42.911Z,3.38
2022-09-22T07:34:52.162Z,3.08
2022-09-22T07:38:10.797Z,3.17
2022-09-22T07:41:22.619Z,3.78
2022-09-22T07:44:57.030Z,3.38
2022-09-22T07:48:27.053Z,2.88
2022-09-22T07:52:03.151Z,4.88
2022-09-22T07:55:11.918Z,3.97
2022-09-22T07:58:22.073Z,3.10
2022-09-22T08:01:46.069Z,3.30
2022-09-22T08:05:06.018Z,4.78
2022-09-22T08:08:20.813Z,6.28
2022-09-22T08:11:45.803Z,5.68
2022-09-22T08:15:06.454Z,5.93
2022-09-22T08:18:15.938Z,4.40
2022-09-22T08:21:23.165Z,4.18
2022-09-22T08:24:37.764Z,3.92
2022-09-22T08:27:51.955Z,3.67
2022-09-22T08:31:02.085Z,3.15
2022-09-22T08:34:22.251Z,3.80
2022-09-22T08:37:35.845Z,4.07
2022-09-22T08:40:48.798Z,3.53
2022-09-22T08:44:03.315Z,3.10
2022-09-22T08:47:41.649Z,2.95
2022-09-22T08:51:10.412Z,5.82
2022-09-22T08:54:22.231Z,3.00
2022-09-22T08:57:47.745Z,2.60
2022-09-22T09:01:07.506Z,5.30
2022-09-22T09:04:58.272Z,4.07
2022-09-22T09:08:20.031Z,4.13
2022-09-22T09:11:49.978Z,4.00
2022-09-22T09:15:33.767Z,4.10
2022-09-22T09:18:57.980Z,2.70
2022-09-22T09:22:29.234Z,2.47
2022-09-22T09:26:08.888Z,3.28
2022-09-22T09:29:28.355Z,2.83
2022-09-22T09:33:05.461Z,3.00
2022-09-22T09:36:25.608Z,3.47
2022-09-22T09:39:37.537Z,1.88
2022-09-22T09:42:40.166Z,2.35
2022-09-22T09:45:51.247Z,1.58
2022-09-22T09:49:06.509Z,2.05
2022-09-22T09:52:12.604Z,2.13
2022-09-22T09:55:27.021Z,1.95
2022-09-22T09:59:01.979Z,1.55
2022-09-22T10:02:05.561Z,1.52
2022-09-22T10:05:22.341Z,2.05
2022-09-22T10:08:25.001Z,1.90
2022-09-22T10:11:33.612Z,1.95
2022-09-22T10:14:36.369Z,1.83
2022-09-22T10:17:42.134Z,2.10
2022-09-22T10:20:45.198Z,1.85
2022-09-22T10:23:51.173Z,1.60
2022-09-22T10:26:57.306Z,1.60
2022-09-22T10:30:32.921Z,1.58
2022-09-22T10:33:39.375Z,1.50
2022-09-22T10:36:45.816Z,0.70
2022-09-22T10:39:50.710Z,0.90
2022-09-22T10:42:59.170Z,1.85
2022-09-22T10:46:18.879Z,0.88
2022-09-22T10:49:35.083Z,0.95
2022-09-22T10:52:47.536Z,1.20
2022-09-22T10:55:56.682Z,1.10
2022-09-22T10:59:15.458Z,0.52
2022-09-22T11:02:57.029Z,0.57
2022-09-22T11:06:32.709Z,0.60
2022-09-22T11:09:59.069Z,0.50
2022-09-22T11:13:12.691Z,0.95
2022-09-22T11:16:42.692Z,0.50
2022-09-22T11:20:06.841Z,0.98
2022-09-22T11:23:35.115Z,0.70
2022-09-22T11:26:48.154Z,1.17
2022-09-22T11:30:11.360Z,0.95
2022-09-22T11:33:44.586Z,0.90
2022-09-22T11:36:57.337Z,2.55
2022-09-22T11:40:20.928Z,2.03
2022-09-22T11:43:41.826Z,0.82
2022-09-22T11:47:00.958Z,0.88
2022-09-22T11:50:40.447Z,0.40
2022-09-22T11:54:11.103Z,1.45
2022-09-22T11:57:17.205Z,0.52
2022-09-22T12:00:22.123Z,0.63
2022-09-22T12:03:31.677Z,0.98
2022-09-22T12:06:41.264Z,1.10
2022-09-22T12:09:49.369Z,1.35
2022-09-22T12:12:52.985Z,0.88
2022-09-22T12:19:16.602Z,0.52
2022-09-22T12:22:25.573Z,0.70
2022-09-22T12:25:49.031Z,0.60
2022-09-22T12:28:52.395Z,0.40
2022-09-22T12:31:57.290Z,0.93
2022-09-22T12:35:01.425Z,0.52
2022-09-22T12:38:04.909Z,0.70
2022-09-22T12:41:10.122Z,1.02
2022-09-22T12:44:17.204Z,0.73
2022-09-22T12:47:23.142Z,0.57
2022-09-22T12:50:36.909Z,0.63
2022-09-22T12:53:43.104Z,0.43
2022-09-22T12:56:57.611Z,0.95
2022-09-22T13:00:20.628Z,0.60
2022-09-22T13:03:50.087Z,0.60
2022-09-22T13:07:01.849Z,0.80
2022-09-22T13:10:41.312Z,1.17
2022-09-22T13:13:51.538Z,0.98
2022-09-22T13:16:57.679Z,0.68
2022-09-22T13:20:17.251Z,0.40
2022-09-22T13:23:23.627Z,0.40
2022-09-22T13:26:31.837Z,1.63
2022-09-22T13:29:43.016Z,0.55
2022-09-22T13:32:55.864Z,0.80
2022-09-22T13:36:15.825Z,0.50
2022-09-22T13:39:24.969Z,0.50
2022-09-22T13:42:34.399Z,0.57
2022-09-22T13:45:45.212Z,1.60
2022-09-22T13:48:58.457Z,0.75
2022-09-22T13:52:10.990Z,0.68
2022-09-22T13:55:27.937Z,0.50
2022-09-22T13:58:41.475Z,0.60
2022-09-22T14:01:57.446Z,1.85
2022-09-22T14:05:10.082Z,0.40
2022-09-22T14:08:22.501Z,0.60
2022-09-22T14:11:38.491Z,1.73
2022-09-22T14:14:47.523Z,0.35
2022-09-22T14:18:00.360Z,0.47
2022-09-22T14:21:13.771Z,1.33
2022-09-22T14:24:20.990Z,1.08
2022-09-22T14:27:33.679Z,0.85
2022-09-22T14:30:43.319Z,0.73
2022-09-22T14:33:52.176Z,0.45
2022-09-22T14:37:01.988Z,0.70
2022-09-22T14:40:17.981Z,1.15
2022-09-22T14:43:28.470Z,0.70
2022-09-22T14:46:45.257Z,0.40
2022-09-22T14:50:07.909Z,0.43
2022-09-22T14:53:23.011Z,0.40
2022-09-22T14:56:33.441Z,0.35
2022-09-22T14:59:57.231Z,0.57
2022-09-22T15:03:05.788Z,0.63
2022-09-22T15:06:18.757Z,0.50
2022-09-22T15:09:30.659Z,0.32
2022-09-22T15:12:47.415Z,0.50
2022-09-22T15:15:56.347Z,0.50
2022-09-22T15:19:02.840Z,0.88
2022-09-22T15:22:13.185Z,0.63
2022-09-22T15:25:20.579Z,1.67
2022-09-22T15:28:30.123Z,1.33
2022-09-22T15:31:36.353Z,1.23
2022-09-22T15:34:45.527Z,0.75
2022-09-22T15:37:56.210Z,1.23
2022-09-22T15:41:03.082Z,0.40
2022-09-22T15:44:09.005Z,0.57
2022-09-22T15:47:17.352Z,0.73
2022-09-22T15:50:31.549Z,0.40
2022-09-22T15:53:40.349Z,0.50
2022-09-22T15:56:48.483Z,1.38
2022-09-22T15:59:54.606Z,0.55
2022-09-22T16:03:03.218Z,1.20
2022-09-22T16:06:12.877Z,1.20
2022-09-22T16:09:22.319Z,0.57
2022-09-22T16:12:35.665Z,1.30
2022-09-22T16:15:44.242Z,0.47
2022-09-22T16:18:51.057Z,1.27
2022-09-22T16:22:00.603Z,0.90
2022-09-22T16:25:13.538Z,0.98
2022-09-22T16:28:27.586Z,0.88
2022-09-22T16:31:41.395Z,0.77
2022-09-22T16:34:52.922Z,1.10
2022-09-22T16:38:04.696Z,3.15
2022-09-22T16:41:23.846Z,0.52
2022-09-22T16:44:39.767Z,0.90
2022-09-22T16:47:47.876Z,1.25
2022-09-22T16:51:01.192Z,1.17
2022-09-22T16:54:09.545Z,0.70
2022-09-22T16:57:20.173Z,0.90
2022-09-22T17:00:28.652Z,1.27
2022-09-22T17:03:35.495Z,0.60
2022-09-22T17:06:42.448Z,1.70
2022-09-22T17:09:50.249Z,0.98
2022-09-22T17:12:58.692Z,2.70
2022-09-22T17:16:13.421Z,0.90
2022-09-22T17:19:22.303Z,0.68
2022-09-22T17:22:30.915Z,0.85
2022-09-22T17:25:37.143Z,0.95
2022-09-22T17:28:45.862Z,0.73
2022-09-22T17:31:52.246Z,1.10
2022-09-22T17:35:02.226Z,0.50
2022-09-22T17:38:09.841Z,1.63
2022-09-22T17:41:20.439Z,1.05
2022-09-22T17:44:29.878Z,0.55
2022-09-22T17:47:52.835Z,0.60
2022-09-22T17:51:18.575Z,0.63
2022-09-22T17:54:42.598Z,1.15
2022-09-22T17:57:51.949Z,1.75
2022-09-22T18:01:00.662Z,1.08
2022-09-22T18:04:07.225Z,2.30
2022-09-22T18:07:18.443Z,1.27
2022-09-22T18:10:33.389Z,1.33
2022-09-22T18:13:43.744Z,1.63
2022-09-22T18:16:54.247Z,1.55
2022-09-22T18:20:03.649Z,1.52
2022-09-22T18:23:09.738Z,0.82
2022-09-22T18:26:18.848Z,1.23
2022-09-22T18:29:26.604Z,0.82
2022-09-22T18:32:41.528Z,1.25
2022-09-22T18:35:51.700Z,2.17
2022-09-22T18:39:00.803Z,2.63
2022-09-22T18:42:11.864Z,1.60
2022-09-22T18:45:18.871Z,1.27
2022-09-22T18:48:28.441Z,1.05
2022-09-22T18:51:39.085Z,1.58
2022-09-22T18:54:46.378Z,1.55
2022-09-22T18:57:55.506Z,1.20
2022-09-22T19:01:03.006Z,1.27
2022-09-22T19:04:19.052Z,1.20
2022-09-22T19:07:42.964Z,1.38
2022-09-22T19:10:52.300Z,1.65
2022-09-22T19:13:59.268Z,1.65
2022-09-22T19:17:05.555Z,1.35
2022-09-22T19:20:15.810Z,1.13
2022-09-22T19:23:21.972Z,1.60
2022-09-22T19:26:30.229Z,2.00
2022-09-22T19:29:36.758Z,1.80
2022-09-22T19:32:43.325Z,1.67
2022-09-22T19:35:52.515Z,1.48
2022-09-22T19:38:59.680Z,2.60
2022-09-22T19:42:06.668Z,2.25
2022-09-22T19:45:14.200Z,1.92
2022-09-22T19:48:20.971Z,2.53
2022-09-22T19:51:29.026Z,1.98
2022-09-22T19:54:38.263Z,2.53
2022-09-22T19:57:44.455Z,2.08
2022-09-22T20:00:53.225Z,2.15
2022-09-22T20:03:59.899Z,3.80
2022-09-22T20:07:08.223Z,3.17
2022-09-22T20:10:14.841Z,2.42
2022-09-22T20:13:37.740Z,2.08
2022-09-22T20:16:46.680Z,1.60
2022-09-22T20:19:55.814Z,3.30
2022-09-22T20:23:28.554Z,3.30
2022-09-22T20:26:39.225Z,2.15
2022-09-22T20:29:44.980Z,2.80
2022-09-22T20:32:53.369Z,2.35
2022-09-22T20:36:00.785Z,2.53
2022-09-22T20:39:10.959Z,2.80
2022-09-22T20:42:17.250Z,2.80
2022-09-22T20:45:25.151Z,2.72
2022-09-22T20:48:32.004Z,2.63
2022-09-22T20:51:42.282Z,4.37
2022-09-22T20:54:54.696Z,2.83
2022-09-22T20:58:02.543Z,2.67
2022-09-22T21:01:12.494Z,2.60
2022-09-22T21:04:21.362Z,3.80
2022-09-22T21:07:29.893Z,3.47
2022-09-22T21:10:37.927Z,3.37
2022-09-22T21:13:44.560Z,2.20
2022-09-22T21:16:52.160Z,2.00
2022-09-22T21:20:02.340Z,3.13
2022-09-22T21:23:09.923Z,3.00
2022-09-22T21:26:18.071Z,2.20
2022-09-22T21:29:26.208Z,4.53
2022-09-22T21:32:35.565Z,3.30
2022-09-22T21:35:42.018Z,1.73
2022-09-22T21:38:51.836Z,2.50
2022-09-22T21:42:00.809Z,2.70
2022-09-22T21:45:08.117Z,2.60
2022-09-22T21:48:15.976Z,3.50
2022-09-22T21:51:32.507Z,2.13
2022-09-22T21:54:42.502Z,3.37
2022-09-22T21:57:58.653Z,3.00
2022-09-22T22:01:18.116Z,3.27
2022-09-22T22:04:33.474Z,2.80
2022-09-22T22:07:40.862Z,3.20
2022-09-22T22:10:53.414Z,2.30
2022-09-22T22:14:15.374Z,3.83
2022-09-22T22:17:23.906Z,2.23
2022-09-22T22:20:33.150Z,2.77
2022-09-22T22:23:47.380Z,3.43
2022-09-22T22:27:06.865Z,3.07
2022-09-22T22:30:27.581Z,2.93
2022-09-22T22:33:38.582Z,3.47
2022-09-22T22:36:51.436Z,2.97
2022-09-22T22:39:56.454Z,3.03
2022-09-22T22:43:07.323Z,4.33
2022-09-22T22:46:20.377Z,2.70
2022-09-22T22:49:43.175Z,5.73
2022-09-22T22:53:05.966Z,3.33
2022-09-22T22:56:31.756Z,3.23
2022-09-22T22:59:42.135Z,2.93
2022-09-22T23:03:14.243Z,2.50
2022-09-22T23:06:40.737Z,2.93
2022-09-22T23:10:14.034Z,2.37
2022-09-22T23:13:30.755Z,4.20
2022-09-22T23:16:55.860Z,2.77
2022-09-22T23:20:11.458Z,2.80
2022-09-22T23:23:37.191Z,2.83
2022-09-22T23:26:46.202Z,2.47
2022-09-22T23:30:08.703Z,2.97
2022-09-22T23:33:18.273Z,2.60
2022-09-22T23:36:34.547Z,2.83
2022-09-22T23:39:43.362Z,2.70
2022-09-22T23:42:50.398Z,4.00
2022-09-22T23:45:56.599Z,3.00
2022-09-22T23:49:03.223Z,3.00
2022-09-22T23:52:16.442Z,2.73
2022-09-22T23:55:22.890Z,2.30
2022-09-22T23:58:29.167Z,6.60
